• Join FlightAware (Why Join?)
  • Login
  • US Flag 
02:41AM EDT


 

Airport Tracker/Info


-or-


 

Live Flight TrackerFlight Track Log ✈ UAL396 ✈ 15-Feb-2012 ✈ PHNL - KSFO

Flight Track Log - Related Links

Times and Time Zones

All times are in EST time to prevent confusion due to time zone crossing. See the UAL396 flight status page for this flight to view local times or setup timezone preferences in your user account.

Time Position Orientation Groundspeed Altitude Reporting Facility
EST Latitude Longitude Course Direction KTS MPH feet Rate Location/Type
03:10AM 21.2815 -157.7891 282° West  Level FlightAware Approximate
03:13AM 21.3000 -157.8833 155° Southeast 180 207 1,100  Level Honolulu Center
03:14AM 21.2333 -157.8500 126° Southeast 250 288 2,600 1,980 Climbing Honolulu Center
03:15AM 21.2000 -157.8000 102° East 280 322 5,100 2,700 Climbing Honolulu Center
03:16AM 21.1833 -157.7167 78° East 270 311 8,000 2,460 Climbing Honolulu Center
03:17AM 21.2000 -157.6333 67° East 280 322 10,100 1,620 Climbing Honolulu Center
03:18AM 21.2333 -157.5500 62° Northeast 340 391 11,300 1,680 Climbing Honolulu Center
03:19AM 21.2833 -157.4500 62° Northeast 370 426 13,500 1,980 Climbing Honolulu Center
03:20AM 21.3333 -157.3500 54° Northeast 380 437 15,400 2,100 Climbing Honolulu Center
03:21AM 21.4000 -157.2500 54° Northeast 390 449 17,800 1,800 Climbing Honolulu Center
03:22AM 21.4667 -157.1500 54° Northeast 410 472 19,100 1,320 Climbing Honolulu Center
03:23AM 21.5333 -157.0500 62° Northeast 420 483 20,500 1,380 Climbing Honolulu Center
03:24AM 21.5833 -156.9500 54° Northeast 430 495 22,000 1,440 Climbing Honolulu Center
03:25AM 21.6500 -156.8500 52° Northeast 440 506 23,500 1,380 Climbing Honolulu Center
03:26AM 21.7333 -156.7333 58° Northeast 460 529 24,800 1,380 Climbing Honolulu Center
03:27AM 21.8000 -156.6167 58° Northeast 470 541 26,300 1,260 Climbing Honolulu Center
03:28AM 21.8667 -156.5000 56° Northeast 470 541 27,400 1,140 Climbing Honolulu Center
03:29AM 21.9500 -156.3667 52° Northeast 490 564 28,600 1,080 Climbing Honolulu Center
03:30AM 22.0333 -156.2500 62° Northeast 500 575 29,600 1,020 Climbing Honolulu Center
03:31AM 22.1000 -156.1167 56° Northeast 510 587 30,700 1,140 Climbing Honolulu Center
03:32AM 22.1833 -155.9833 52° Northeast 510 587 32,000 1,380 Climbing Honolulu Center
03:33AM 22.2667 -155.8667 62° Northeast 500 575 33,500 1,260 Climbing Honolulu Center
03:34AM 22.3333 -155.7333 52° Northeast 500 575 34,600 720 Climbing Honolulu Center
03:35AM 22.4167 -155.6167 62° Northeast 500 575 35,000 360 Climbing Honolulu Center
03:36AM 22.4833 -155.4833 56° Northeast 500 575 35,400 480 Climbing Honolulu Center
03:37AM 22.5667 -155.3500 52° Northeast 500 575 36,000 240 Climbing Honolulu Center
03:38AM 22.6500 -155.2333 62° Northeast 500 575 36,000  Level Honolulu Center
03:39AM 22.7167 -155.1000 52° Northeast 500 575 36,000  Level Honolulu Center
03:40AM 22.8000 -154.9833 61° Northeast 500 575 36,000  Level Honolulu Center
03:41AM 22.8667 -154.8500 52° Northeast 500 575 36,000  Level Honolulu Center
03:42AM 22.9500 -154.7333 56° Northeast 500 575 36,000  Level Honolulu Center
03:53AM 23.7833 -153.3667 360° North 502 578 36,000  Level Oakland Oceanic (ODAPS)
03:55AM 23.7833 -153.3667 57° Northeast 502 578 36,000  Level Oakland Oceanic (ODAPS)
04:04AM 24.6000 -151.9667 57° Northeast 507 583 36,000  Level Oakland Oceanic (ODAPS)
04:18AM 25.6500 -150.1500 58° Northeast 510 587 36,000  Level Oakland Oceanic (ODAPS)
04:32AM 26.6667 -148.3000 59° Northeast 505 581 36,000  Level Oakland Oceanic (ODAPS)
04:40AM 27.2333 -147.2167 59° Northeast 509 586 36,000  Level Oakland Oceanic (ODAPS)
04:46AM 27.6667 -146.4000 60° Northeast 508 585 36,000  Level Oakland Oceanic (ODAPS)
05:00AM 28.6333 -144.4667 60° Northeast 508 585 36,000  Level Oakland Oceanic (ODAPS)
05:13AM 29.5833 -142.5167 62° Northeast 503 579 36,000  Level Oakland Oceanic (ODAPS)
05:26AM 30.4000 -140.7000 60° Northeast 500 575 36,000  Level Oakland Oceanic (ODAPS)
05:27AM 30.4833 -140.5333 63° Northeast 500 575 36,000  Level Oakland Oceanic (ODAPS)
05:38AM 31.1500 -139.0167 64° Northeast 494 568 36,000  Level Oakland Oceanic (ODAPS)
05:41AM 31.3500 -138.5333 64° Northeast 500 575 36,000  Level Oakland Oceanic (ODAPS)
05:55AM 32.1833 -136.4833 64° Northeast 504 580 37,000  Climbing Oakland Oceanic (ODAPS)
06:09AM 33.0000 -134.4000 66° East 501 577 37,000  Level Oakland Oceanic (ODAPS)
06:14AM 33.2833 -133.6167 66° East 495 570 37,000  Level Oakland Oceanic (ODAPS)
06:23AM 33.7667 -132.2667 67° East 492 566 37,000  Level Oakland Oceanic (ODAPS)
06:37AM 34.4833 -130.1333 68° East 488 562 37,000  Level Oakland Oceanic (ODAPS)
06:51AM 35.1667 -128.0000 70° East 485 558 37,000  Level Oakland Oceanic (ODAPS)
07:02AM 35.6708 -126.2492 69° East 471 542 37,000  Level Oakland Center
07:03AM 35.7169 -126.1039 63° Northeast 460 529 37,000  Level Oakland Center
07:04AM 35.7750 -125.9617 59° Northeast 460 529 37,000  Level Oakland Center
07:05AM 35.8392 -125.8275 62° Northeast 455 524 37,000  Level Oakland Center
07:06AM 35.8992 -125.6903 60° Northeast 455 524 37,000  Level Oakland Center
07:07AM 35.9608 -125.5556 61° Northeast 448 516 37,000  Level Oakland Center
07:08AM 36.0225 -125.4153 59° Northeast 448 516 37,000  Level Oakland Center
07:09AM 36.0878 -125.2831 61° Northeast 448 516 37,000  Level Oakland Center
07:10AM 36.1494 -125.1422 63° Northeast 448 516 37,000  Level Oakland Center
07:11AM 36.2064 -125.0039 61° Northeast 448 516 37,000 -180 Level Oakland Center
07:12AM 36.2672 -124.8653 60° Northeast 448 516 36,700 -600 Descending Oakland Center
07:13AM 36.3303 -124.7294 60° Northeast 448 516 35,900 -780 Descending Oakland Center
07:14AM 36.3906 -124.5981 62° Northeast 448 516 35,200 -900 Descending Oakland Center
07:15AM 36.4469 -124.4639 61° Northeast 443 510 34,200 -1,080 Descending Oakland Center
07:16AM 36.5047 -124.3347 61° Northeast 443 510 33,100 -1,320 Descending Oakland Center
07:17AM 36.5628 -124.2031 61° Northeast 437 503 31,600 -1,380 Descending Oakland Center
07:18AM 36.6206 -124.0733 62° Northeast 430 495 30,400 -1,200 Descending Oakland Center
07:19AM 36.6783 -123.9358 62° Northeast 430 495 29,300 -1,200 Descending Oakland Center
07:20AM 36.7381 -123.7983 62° Northeast 430 495 28,100 -1,380 Descending Oakland Center
07:21AM 36.7956 -123.6656 61° Northeast 430 495 26,600 -1,500 Descending Oakland Center
07:22AM 36.8547 -123.5328 61° Northeast 430 495 25,200 -1,500 Descending Oakland Center
07:23AM 36.9094 -123.4100 62° Northeast 425 489 23,600 -1,680 Descending Oakland Center
07:24AM 36.9619 -123.2869 62° Northeast 408 470 21,900 -1,500 Descending Oakland Center
07:25AM 37.0122 -123.1686 61° Northeast 394 453 20,600 -1,500 Descending Oakland Center
07:26AM 37.0625 -123.0531 62° Northeast 380 437 19,000 -1,440 Descending Oakland Center
07:27AM 37.1103 -122.9425 62° Northeast 374 430 17,800 -1,560 Descending Oakland Center
07:28AM 37.1558 -122.8342 61° Northeast 362 417 15,900 -1,800 Descending Oakland Center
07:29AM 37.2011 -122.7308 63° Northeast 349 402 14,300 -1,800 Descending Oakland Center
07:30AM 37.2422 -122.6303 61° Northeast 331 381 12,400 -1,800 Descending Oakland Center
07:31AM 37.2853 -122.5344 63° Northeast 324 373 10,800 -1,200 Descending Oakland Center
07:32AM 37.3219 -122.4439 63° Northeast 306 352 10,000 -900 Descending Oakland Center
07:33AM 37.3542 -122.3636 52° Northeast 276 318 9,100 -840 Descending Oakland Center
07:33AM 37.3833 -122.3167 58° Northeast 244 281 8,700 -960 Descending Northern Cal TRACON
07:34AM 37.4167 -122.2500 15° North 221 254 7,700 -1,020 Descending Northern Cal TRACON
07:35AM 37.4667 -122.2333 38° Northeast 189 217 6,700 -1,200 Descending Northern Cal TRACON
07:36AM 37.5000 -122.2000 38° Northeast 174 200 5,400 -1,320 Descending Northern Cal TRACON